Air Resources Laboratory banner image
Air Resources Laboratory web site National Oceanic and Atmospheric Administration (NOAA)

mi metar


KACB 191555Z AUTO 00000KT 10SM BKN070 04/00 A2992 RMK AO2 T00390000=
KADG 191553Z AUTO 22003KT 1/4SM FG VV002 03/03 A3000 RMK AO2 SLP167 T00330033
 TSNO=
KAMN 191556Z AUTO 17006KT 4SM BR OVC005 04/03 A2994 RMK AO2 T00350031=
KANJ 191555Z AUTO 09004KT 7SM OVC023 02/M02 A2996 RMK AO2 SLP150 T00221017=
KAPN 191554Z AUTO 18004KT 10SM OVC050 02/M01 A2995 RMK AO2 SLP150 T00221011=
KARB 191553Z 17003KT 1/4SM FG VV002 02/02 A2998 RMK AO2 SLP161 T00220022=
KAZO 191553Z 00000KT M1/4SM R35/1800V2800FT FG VV002 04/04 A2994 RMK AO2 RAE00
 SLP146 P0000 T00440039=
KBAX 191555Z AUTO 19006KT 10SM OVC037 02/00 A2995 RMK AO2 T00210000=
KBEH 191553Z AUTO 12006KT -RA OVC003 06/04 A2990 RMK AO2 RAB46 SLP130 P0002
 T00560044 $=
KBIV 191553Z AUTO 18006KT 5SM BR OVC003 06/04 A2992 RMK AO2 SLP138 T00560044=
KBTL 191553Z 15004KT M1/4SM R23R/1000V1200FT FG VV002 04/03 A2995 RMK AO2 RAE13
 SLP151 P0000 T00390033=
KCAD 191555Z AUTO 19004KT 10SM OVC055 03/00 A2989 RMK AO2 T00370002=
KCIU 191556Z AUTO 02003KT 9SM FEW021 OVC070 01/M02 A2995 RMK AO2 SLP172
 T00111022 FZRANO=
KCMX 191553Z AUTO 02013KT 1/2SM SN VV012 M08/M11 A3005 RMK AO2 SLP196 P0000
 T10781111=
KDET 191553Z 21005KT 4SM BR OVC004 04/03 A3001 RMK AO2 SLP166 T00440033=
KDTW 191553Z 19004KT 1SM R03R/P6000FT -RA BR OVC003 03/03 A3001 RMK AO2 RAB40
 SLP169 P0000 T00330033=
KERY 191555Z AUTO 32005KT 7SM BKN013 OVC070 01/M02 A2994 RMK AO2 T00101017=
KESC 191556Z AUTO 35007G15KT 10SM OVC012 M02/M04 A2997 RMK AO2 SLP173 T10171044
 FZRANO=
KFNT 191553Z 20009KT 9SM OVC006 03/02 A2999 RMK AO2 PRESRR SLP161 T00330017=
KGLR 191553Z AUTO 17003KT 6SM BR OVC060 01/M01 A2989 RMK AO2 SLP138 T00061011 $=
KGRR 191553Z 17009KT 3/4SM R26L/P6000FT BR OVC003 04/03 A2994 RMK AO2 SLP144
 T00440033=
KHTL 191553Z AUTO VRB03KT 10SM OVC046 02/M01 A2991 RMK AO2 SLP141 T00221011=
KIMT 191554Z AUTO 35010KT 10SM OVC012 M04/M07 A2996 RMK AO2 SLP163 T10441072=
KIRS 191555Z AUTO 17006KT 3/4SM RA OVC002 06/06 A2992 RMK AO2 P0002 T00590057=
KISQ 191555Z AUTO 35009G15KT 10SM OVC017 01/M01 A2994 RMK AO2 T00051009=
KIWD 191556Z AUTO 03006KT 1 3/4SM -SN BR SCT013 BKN019 OVC033 M08/M11 A3004 RMK
 AO2 VIS 1 1/2V2 1/2 SLP193 P0001 T10831106 FZRANO=
KJXN 191556Z 17008KT 1SM BR OVC003 05/05 A2997 RMK AO2 SLP157 T00500050=
KJYM 191555Z AUTO 18005KT 1/4SM RA OVC003 04/03 A2996 RMK AO2 P0001=
KLAN 191553Z 19008KT 5SM BR OVC005 04/04 A2997 RMK AO2 SLP157 T00440039=
KLDM 191555Z AUTO 00000KT 10SM CLR 06/02 A2987 RMK AO2 T00600023=
KMBL 191556Z AUTO 08003KT 10SM CLR 04/00 A2988 RMK AO2 SLP143 T00440000=
KMBS 191553Z 19007KT 6SM BR OVC008 04/02 A2996 RMK AO2 SLP151 T00390017=
KMCD 191555Z AUTO 00000KT 10SM BKN016 OVC070 02/M02 A2993 RMK AO2 T00191024=
KMKG 191555Z 19011KT 6SM BR OVC004 05/03 A2993 RMK AO2 PRESRR SLP141 T00500033=
KMNM 191556Z AUTO 03009KT 6SM HZ OVC009 01/M02 A2993 RMK AO2 SLP158 T00111017
 FZRANO $=
KMOP 191555Z AUTO 16005KT 10SM OVC008 04/01 A2993 RMK AO2 T00410011=
KMTC 191556Z AUTO 17004KT 7SM OVC003 02/02 A2999 RMK AO2 SLP167 T00230023=
KOEB 191555Z AUTO 00000KT 1/2SM RA OVC002 05/05 A2994 RMK AO2 T00450045=
KONZ 191555Z AUTO 19004KT 1SM BR OVC002 02/01 A3000 RMK AO2 T00170013=
KOSC 191555Z AUTO 21007KT 10SM OVC048 03/M02 A2993 RMK AO2 T00251017=
KOZW 191555Z AUTO 18006KT 2 1/2SM BR OVC004 03/03 A2998 RMK AO2 T00330031=
KP58 191551Z AUTO 18004KT 04/M01 A2994 RMK AO1 SLP147 T00391006=
KP59 191551Z AUTO 06018KT M08/M11 A3011 RMK AO1 SLP213 T10781106=
KPHN 191555Z AUTO 18004KT 2 1/2SM BR OVC003 02/01 A3001 RMK AO2=
KPLN 191554Z AUTO 00000KT 9SM FEW030 OVC070 02/M02 A2993 RMK AO2 SLP143
 T00171017=
KPTK 191553Z 19006KT 1SM R09R/4000V6000FT BR OVC002 03/03 A2998 RMK AO2 SLP161
 T00280028=
KRMY 191555Z AUTO 17005KT 1 1/2SM BR OVC003 04/04 A2996 RMK AO2 T00430040=
KRQB 191555Z AUTO 17004KT 10SM SCT013 05/00 A2989 RMK AO2 T00450003=
KSAW 191546Z 01016G21KT 10SM OVC006 M07/M08 A2999=
KTEW 191555Z AUTO 17007KT 1 1/2SM BR OVC004 03/02 A2998 RMK AO2 T00340016=
KTTF 191556Z AUTO 20004KT 2 1/2SM -RA OVC003 05/04 A3000 RMK AO2 T00530043=
KTVC 191553Z 02004KT 10SM FEW065 OVC250 04/M01 A2990 RMK AO2 SLP130 T00391006=
KYIP 191553Z 00000KT 1/4SM R05R/2200V4000FT -RA FG OVC002 03/01 A3000 RMK AO2
 UPB46E51RAB51 SLP164 P0000 T00280011=